METAR Data
IDs: Format: Raw Decoded Include TAF

Data at: 0920 UTC 10 Dec 2022

METAR for:KMOP (Mount Pleasant Muni, MI, US)
Text:KMOP 100915Z AUTO 06005KT 10SM OVC023 00/M04 A3032 RMK AO2 T00001040
Temperature: 0.0°C ( 32°F)
Dewpoint: -4.0°C ( 25°F) [RH = 74%]
Pressure (altimeter):30.32 inches Hg (1026.8 mb)
Winds:from the ENE (60 degrees) at 6 MPH (5 knots; 2.6 m/s)
Visibility:10 or more sm (16+ km)
Ceiling:2300 feet AGL
Clouds: overcast cloud deck at 2300 feet AGL
QC Flag:automated observation with no human augmentation